Time;durP1;ratioP1;P1;durP2;ratioP2;P2;SDS_P1;SDS_P2;PMS_P1;PMS_P2;Temp;Humidity;BMP_temperature;BMP_pressure;BME280_temperature;BME280_humidity;BME280_pressure;Samples;Min_cycle;Max_cycle;Signal;HPM_P1;HPM_P2
2023/04/05 00:01:19;;;;;;;;;;;1.80;96.50;;;;;;4937680;29;19927;-79
2023/04/05 00:03:47;;;;;;;;;;;1.70;96.60;;;;;;4954264;28;19941;-79
2023/04/05 00:06:15;;;;;;;;;;;1.70;96.70;;;;;;4938288;29;19961;-79
2023/04/05 00:08:43;;;;;;;;;;;1.60;96.80;;;;;;4945922;28;19982;-78
2023/04/05 00:11:11;;;;;;;;;;;1.60;97.00;;;;;;4953616;28;20966;-78
2023/04/05 00:13:38;;;;;;;;;;;1.60;97.30;;;;;;4945742;28;19936;-77
2023/04/05 00:16:05;;;;;;;;;;;1.60;97.50;;;;;;4948205;28;19931;-78
2023/04/05 00:18:33;;;;;;;;;;;1.60;97.70;;;;;;4952731;29;20302;-79
2023/04/05 00:21:00;;;;;;;;;;;1.60;97.80;;;;;;4937053;29;20007;-79
2023/04/05 00:23:27;;;;;;;;;;;1.50;98.00;;;;;;4938846;29;19952;-78
2023/04/05 00:25:54;;;;;;;;;;;1.50;98.30;;;;;;4936686;29;21262;-78
2023/04/05 00:28:22;;;;;;;;;;;1.50;98.60;;;;;;4935610;29;20020;-78
2023/04/05 00:30:51;;;;;;;;;;;1.50;98.80;;;;;;4934973;29;19930;-79
2023/04/05 00:33:18;;;;;;;;;;;1.50;99.00;;;;;;4934809;29;19937;-78
2023/04/05 00:35:45;;;;;;;;;;;1.50;99.40;;;;;;4951225;28;19945;-79
2023/04/05 00:38:12;;;;;;;;;;;1.50;99.80;;;;;;4936737;29;20322;-79
2023/04/05 00:40:39;;;;;;;;;;;1.50;99.90;;;;;;4951128;28;19933;-79
2023/04/05 00:43:06;;;;;;;;;;;1.50;99.90;;;;;;4952869;28;20641;-80
2023/04/05 00:45:35;;;;;;;;;;;1.50;99.90;;;;;;4959284;28;19926;-80
2023/04/05 00:48:03;;;;;;;;;;;1.50;99.90;;;;;;4956298;29;20001;-81
2023/04/05 00:50:30;;;;;;;;;;;1.40;99.90;;;;;;4957260;28;19926;-80
2023/04/05 00:52:57;;;;;;;;;;;1.40;99.90;;;;;;4937966;29;19926;-80
2023/04/05 00:55:25;;;;;;;;;;;1.40;99.90;;;;;;4946397;28;19930;-78
2023/04/05 00:57:54;;;;;;;;;;;1.30;99.90;;;;;;4946106;28;20009;-79
2023/04/05 01:00:21;;;;;;;;;;;1.30;99.90;;;;;;4954390;28;19922;-79
2023/04/05 01:03:00;;;;;;;;;;;1.30;99.90;;;;;;4955879;28;19927;-79
2023/04/05 01:05:34;;;;;;;;;;;1.30;99.90;;;;;;4940194;28;20409;-79
2023/04/05 01:08:08;;;;;;;;;;;1.30;99.90;;;;;;4944839;28;20445;-79
2023/04/05 01:10:37;;;;;;;;;;;1.20;99.90;;;;;;4939402;29;19931;-79
2023/04/05 01:13:05;;;;;;;;;;;1.20;99.90;;;;;;4956635;28;20032;-79
2023/04/05 01:15:32;;;;;;;;;;;1.10;99.90;;;;;;4953359;28;19937;-77
2023/04/05 01:18:01;;;;;;;;;;;1.10;99.90;;;;;;4956507;28;19969;-80
2023/04/05 01:20:32;;;;;;;;;;;1.00;99.90;;;;;;4955178;29;19946;-80
2023/04/05 01:23:06;;;;;;;;;;;1.00;99.90;;;;;;4958328;28;19926;-81
2023/04/05 01:25:49;;;;;;;;;;;1.00;99.90;;;;;;4956150;29;19926;-81
2023/04/05 01:28:32;;;;;;;;;;;1.00;99.90;;;;;;4949351;29;19922;-81
2023/04/05 01:31:04;;;;;;;;;;;1.00;99.90;;;;;;4935790;28;19930;-81
2023/04/05 01:33:46;;;;;;;;;;;0.90;99.90;;;;;;4947232;28;20304;-81
2023/04/05 01:36:17;;;;;;;;;;;0.90;99.90;;;;;;4939095;29;20028;-79
2023/04/05 01:38:46;;;;;;;;;;;0.90;99.90;;;;;;4956365;29;20561;-79
2023/04/05 01:41:13;;;;;;;;;;;0.90;99.90;;;;;;4936404;29;19926;-78
2023/04/05 01:43:40;;;;;;;;;;;0.90;99.90;;;;;;4937361;29;19930;-79
2023/04/05 01:46:08;;;;;;;;;;;0.90;99.90;;;;;;4948387;28;19941;-78
2023/04/05 01:48:35;;;;;;;;;;;0.80;99.90;;;;;;4935710;28;19926;-79
2023/04/05 01:51:02;;;;;;;;;;;0.80;99.90;;;;;;4950896;28;20013;-80
2023/04/05 01:53:29;;;;;;;;;;;0.70;99.90;;;;;;4941678;28;19981;-80
2023/04/05 01:55:59;;;;;;;;;;;0.60;99.90;;;;;;4941802;28;20488;-81
2023/04/05 01:58:26;;;;;;;;;;;0.80;99.90;;;;;;4939985;29;19931;-79
2023/04/05 02:00:54;;;;;;;;;;;0.60;99.90;;;;;;4938571;29;19933;-82
2023/04/05 02:03:22;;;;;;;;;;;0.60;99.90;;;;;;4942774;29;19926;-81
2023/04/05 02:05:49;;;;;;;;;;;0.60;99.90;;;;;;4947156;28;19931;-81
2023/04/05 02:08:16;;;;;;;;;;;0.50;99.90;;;;;;4947443;28;19926;-81
2023/04/05 02:10:43;;;;;;;;;;;0.60;99.90;;;;;;4962383;28;20051;-81
2023/04/05 02:13:10;;;;;;;;;;;0.50;99.90;;;;;;4942399;28;19922;-82
2023/04/05 02:15:37;;;;;;;;;;;0.50;99.90;;;;;;4956403;29;19980;-82
2023/04/05 02:18:06;;;;;;;;;;;0.40;99.90;;;;;;4949532;29;19926;-82
2023/04/05 02:20:35;;;;;;;;;;;0.50;99.90;;;;;;4941708;29;19922;-82
2023/04/05 02:23:02;;;;;;;;;;;0.50;99.90;;;;;;4941372;28;19926;-81
2023/04/05 02:25:29;;;;;;;;;;;0.50;99.90;;;;;;4960380;28;19929;-82
2023/04/05 02:27:56;;;;;;;;;;;0.50;99.90;;;;;;4962729;28;19937;-81
2023/04/05 02:30:23;;;;;;;;;;;0.50;99.90;;;;;;4956853;28;19973;-82
2023/04/05 02:32:50;;;;;;;;;;;0.40;99.90;;;;;;4939929;28;19926;-84
2023/04/05 02:35:17;;;;;;;;;;;0.40;99.90;;;;;;4952830;29;19926;-81
2023/04/05 02:37:45;;;;;;;;;;;0.40;99.90;;;;;;4963848;29;20596;-80
2023/04/05 02:40:13;;;;;;;;;;;0.30;99.90;;;;;;4951963;29;19927;-81
2023/04/05 02:42:40;;;;;;;;;;;0.30;99.90;;;;;;4944830;28;19927;-79
2023/04/05 02:45:08;;;;;;;;;;;0.30;99.90;;;;;;4941504;28;21364;-79
2023/04/05 02:47:35;;;;;;;;;;;0.30;99.90;;;;;;4934369;29;19941;-79
2023/04/05 02:50:02;;;;;;;;;;;0.30;99.90;;;;;;4941377;29;19984;-82
2023/04/05 02:52:36;;;;;;;;;;;0.30;99.90;;;;;;4939328;29;19937;-81
2023/04/05 02:55:05;;;;;;;;;;;0.30;99.90;;;;;;4942875;29;19929;-80
2023/04/05 02:57:32;;;;;;;;;;;0.30;99.90;;;;;;4952432;29;19914;-81
2023/04/05 03:00:10;;;;;;;;;;;0.30;99.90;;;;;;4947120;28;19918;-83
2023/04/05 03:02:38;;;;;;;;;;;0.30;99.90;;;;;;4955693;28;20039;-81
2023/04/05 03:05:06;;;;;;;;;;;0.30;99.90;;;;;;4942887;29;19977;-82
2023/04/05 03:07:34;;;;;;;;;;;0.30;99.90;;;;;;4954883;28;19926;-82
2023/04/05 03:10:08;;;;;;;;;;;0.30;99.90;;;;;;4945578;29;19927;-84
2023/04/05 03:12:38;;;;;;;;;;;0.20;99.90;;;;;;4951464;28;19930;-83
2023/04/05 03:15:08;;;;;;;;;;;0.20;99.90;;;;;;4940658;29;19930;-79
2023/04/05 03:17:43;;;;;;;;;;;0.10;99.90;;;;;;4954344;28;19981;-86
2023/04/05 03:20:12;;;;;;;;;;;0.10;99.90;;;;;;4952443;28;20482;-85
2023/04/05 03:22:39;;;;;;;;;;;0.00;99.90;;;;;;4944042;29;20275;-86
2023/04/05 03:25:09;;;;;;;;;;;0.00;99.90;;;;;;4963885;28;19962;-88
2023/04/05 03:27:44;;;;;;;;;;;0.00;99.90;;;;;;4960302;28;19913;-83
2023/04/05 03:30:18;;;;;;;;;;;0.00;99.90;;;;;;4937313;29;19940;-82
2023/04/05 03:32:52;;;;;;;;;;;0.00;99.90;;;;;;4957123;28;19949;-83
2023/04/05 03:35:36;;;;;;;;;;;0.00;99.90;;;;;;4959767;28;19926;-83
2023/04/05 03:38:06;;;;;;;;;;;0.00;99.90;;;;;;4963389;28;19925;-84
2023/04/05 03:40:36;;;;;;;;;;;-0.10;99.90;;;;;;4949189;28;20321;-83
2023/04/05 03:43:03;;;;;;;;;;;-0.10;99.90;;;;;;4954893;28;19949;-85
2023/04/05 03:45:31;;;;;;;;;;;-0.10;99.90;;;;;;4961677;29;19957;-83
2023/04/05 03:47:59;;;;;;;;;;;-0.10;99.90;;;;;;4961759;28;20057;-83
2023/04/05 03:50:27;;;;;;;;;;;-0.10;99.90;;;;;;4949323;28;20445;-81
2023/04/05 03:52:54;;;;;;;;;;;-0.20;99.90;;;;;;4961267;28;19927;-80
2023/04/05 03:55:22;;;;;;;;;;;-0.20;99.90;;;;;;4956528;29;19922;-82
2023/04/05 03:57:53;;;;;;;;;;;-0.20;99.90;;;;;;4946359;29;19938;-81
2023/04/05 04:00:24;;;;;;;;;;;-0.20;99.90;;;;;;4954495;28;19926;-82
2023/04/05 04:03:12;;;;;;;;;;;-0.30;99.90;;;;;;4962595;28;19926;-83
2023/04/05 04:05:43;;;;;;;;;;;-0.30;99.90;;;;;;4948616;29;19938;-82
2023/04/05 04:08:10;;;;;;;;;;;-0.30;99.90;;;;;;4949191;28;19917;-83
2023/04/05 04:10:38;;;;;;;;;;;-0.30;99.90;;;;;;4951344;28;19965;-83
2023/04/05 04:13:18;;;;;;;;;;;-0.40;99.90;;;;;;4950777;29;19922;-83
2023/04/05 04:15:47;;;;;;;;;;;-0.40;99.90;;;;;;4953069;28;19926;-83
2023/04/05 04:18:38;;;;;;;;;;;-0.50;99.90;;;;;;4983543;28;19909;-83
2023/04/05 04:21:23;;;;;;;;;;;-0.50;99.90;;;;;;4951773;29;19922;-83
2023/04/05 04:24:09;;;;;;;;;;;-0.50;99.90;;;;;;4968611;28;19950;-84
2023/04/05 04:26:56;;;;;;;;;;;-0.50;99.90;;;;;;4937631;29;19946;-82
2023/04/05 04:29:47;;;;;;;;;;;-0.60;99.90;;;;;;4956059;28;19985;-83
2023/04/05 04:32:51;;;;;;;;;;;-0.60;99.90;;;;;;4980565;28;20477;-84
2023/04/05 04:35:38;;;;;;;;;;;-0.60;99.90;;;;;;4981566;28;19932;-85
2023/04/05 04:38:17;;;;;;;;;;;-0.60;99.90;;;;;;4951182;29;19922;-85
2023/04/05 04:40:53;;;;;;;;;;;-0.60;99.90;;;;;;4953199;28;19953;-83
2023/04/05 04:43:42;;;;;;;;;;;-0.60;99.90;;;;;;4930141;29;19930;-84
2023/04/05 04:46:41;;;;;;;;;;;-0.60;99.90;;;;;;4970588;28;19936;-83
2023/04/05 04:49:38;;;;;;;;;;;-0.70;99.90;;;;;;4958298;28;19949;-82
2023/04/05 04:52:06;;;;;;;;;;;-0.70;99.90;;;;;;4987124;28;19957;-83
2023/04/05 04:54:41;;;;;;;;;;;-0.60;99.90;;;;;;4952749;29;19958;-84
2023/04/05 04:57:08;;;;;;;;;;;-0.70;99.90;;;;;;4962021;28;19922;-84
2023/04/05 04:59:36;;;;;;;;;;;-0.70;99.90;;;;;;4955099;28;20179;-82
2023/04/05 05:02:07;;;;;;;;;;;-0.60;99.90;;;;;;4978815;28;20414;-83
2023/04/05 05:04:34;;;;;;;;;;;-0.60;99.90;;;;;;4969771;28;20239;-82
2023/04/05 05:07:01;;;;;;;;;;;-0.60;99.90;;;;;;4955783;28;19921;-85
2023/04/05 05:09:28;;;;;;;;;;;-0.50;99.90;;;;;;4948724;29;19934;-84
2023/04/05 05:12:00;;;;;;;;;;;-0.50;99.90;;;;;;4938043;29;19927;-83
2023/04/05 05:14:27;;;;;;;;;;;-0.50;99.90;;;;;;4943386;29;20263;-83
2023/04/05 05:16:57;;;;;;;;;;;-0.50;99.90;;;;;;4964902;29;20645;-84
2023/04/05 05:19:30;;;;;;;;;;;-0.40;99.90;;;;;;4955650;28;19929;-82
2023/04/05 05:21:59;;;;;;;;;;;-0.40;99.90;;;;;;4956202;28;19942;-83
2023/04/05 05:24:26;;;;;;;;;;;-0.40;99.90;;;;;;4970301;28;20411;-84
2023/04/05 05:26:55;;;;;;;;;;;-0.40;99.90;;;;;;4967712;28;19922;-84
2023/04/05 05:29:25;;;;;;;;;;;-0.30;99.90;;;;;;4968292;28;19922;-83
2023/04/05 05:31:52;;;;;;;;;;;-0.20;99.90;;;;;;4953121;28;20363;-83
2023/04/05 05:34:20;;;;;;;;;;;-0.10;99.90;;;;;;4961872;28;20092;-83
2023/04/05 05:36:53;;;;;;;;;;;-0.10;99.90;;;;;;4968678;28;19932;-83
2023/04/05 05:42:31;;;;;;;;;;;0.10;99.90;;;;;;4966427;28;19931;-83
2023/04/05 05:44:58;;;;;;;;;;;0.80;99.90;;;;;;4966955;28;19923;-82
2023/04/05 05:47:27;;;;;;;;;;;1.70;99.90;;;;;;4976872;28;19960;-82
2023/04/05 05:49:55;;;;;;;;;;;2.70;99.90;;;;;;4951867;29;19930;-83
2023/04/05 05:52:24;;;;;;;;;;;3.70;99.90;;;;;;4941327;28;20129;-82
2023/04/05 05:54:51;;;;;;;;;;;4.60;99.90;;;;;;4950008;28;19928;-80
2023/04/05 05:57:22;;;;;;;;;;;5.60;99.90;;;;;;4961410;28;19926;-79
2023/04/05 05:59:49;;;;;;;;;;;6.60;99.90;;;;;;4953954;28;19923;-80
2023/04/05 06:02:16;;;;;;;;;;;7.50;99.90;;;;;;4963287;28;20000;-81
2023/04/05 06:04:44;;;;;;;;;;;8.50;99.90;;;;;;4962917;29;19997;-83
2023/04/05 06:07:11;;;;;;;;;;;9.40;99.90;;;;;;4946071;28;20022;-82
2023/04/05 06:09:39;;;;;;;;;;;10.30;99.90;;;;;;4957206;28;19929;-79
2023/04/05 06:12:06;;;;;;;;;;;11.10;99.90;;;;;;4949941;28;19926;-81
2023/04/05 06:14:33;;;;;;;;;;;12.00;99.90;;;;;;4939229;29;19926;-81
2023/04/05 06:17:00;;;;;;;;;;;12.80;99.90;;;;;;4957782;28;19934;-81
2023/04/05 06:19:27;;;;;;;;;;;13.50;99.90;;;;;;4936934;29;20367;-82
2023/04/05 06:21:55;;;;;;;;;;;14.20;99.90;;;;;;4955316;28;21383;-81
2023/04/05 06:24:22;;;;;;;;;;;14.90;99.90;;;;;;4939305;29;19930;-81
2023/04/05 06:26:51;;;;;;;;;;;15.60;99.90;;;;;;4940784;29;20090;-82
2023/04/05 06:29:21;;;;;;;;;;;16.20;99.90;;;;;;4961892;28;19929;-81
2023/04/05 06:31:51;;;;;;;;;;;16.90;99.90;;;;;;4932962;29;19964;-81
2023/04/05 06:34:20;;;;;;;;;;;17.50;99.90;;;;;;4949392;28;19922;-81
2023/04/05 06:36:48;;;;;;;;;;;18.10;99.90;;;;;;4957540;28;20000;-81
2023/04/05 06:39:18;;;;;;;;;;;18.70;99.90;;;;;;4943818;29;19923;-82
2023/04/05 06:41:47;;;;;;;;;;;19.30;99.90;;;;;;4947775;28;20445;-81
2023/04/05 06:44:16;;;;;;;;;;;19.80;99.90;;;;;;4950720;29;19927;-82
2023/04/05 06:46:43;;;;;;;;;;;20.30;99.90;;;;;;4942529;29;19918;-82
2023/04/05 06:49:10;;;;;;;;;;;;;;;;;;4957476;28;19958;-81
2023/04/05 06:51:37;;;;;;;;;;;22.90;99.90;;;;;;4972937;28;19949;-81
2023/04/05 06:54:05;;;;;;;;;;;21.70;99.90;;;;;;4961942;28;19929;-81
2023/04/05 06:56:31;;;;;;;;;;;21.90;99.90;;;;;;4959523;28;19911;-81
2023/04/05 06:59:01;;;;;;;;;;;22.20;97.70;;;;;;4945605;29;19937;-82
2023/04/05 07:01:29;;;;;;;;;;;22.30;95.70;;;;;;4980344;28;19934;-82
2023/04/05 07:03:58;;;;;;;;;;;22.30;94.60;;;;;;4961665;28;19980;-81
2023/04/05 07:06:47;;;;;;;;;;;22.50;93.20;;;;;;4960021;28;20229;-82
2023/04/05 07:09:33;;;;;;;;;;;22.80;92.60;;;;;;4957700;28;19993;-82
2023/04/05 07:12:02;;;;;;;;;;;23.00;90.70;;;;;;4952844;28;20305;-83
2023/04/05 07:14:40;;;;;;;;;;;23.10;88.40;;;;;;4958223;28;20297;-83
2023/04/05 07:17:09;;;;;;;;;;;23.10;86.60;;;;;;4960975;28;19977;-80
2023/04/05 07:19:36;;;;;;;;;;;23.30;87.00;;;;;;4958114;28;20278;-82
2023/04/05 07:22:02;;;;;;;;;;;23.50;86.70;;;;;;4975837;28;20253;-81
2023/04/05 07:24:29;;;;;;;;;;;23.50;82.80;;;;;;4963021;28;20020;-81
2023/04/05 07:26:57;;;;;;;;;;;23.30;79.10;;;;;;4955656;28;19953;-81
2023/04/05 07:29:24;;;;;;;;;;;22.90;75.40;;;;;;4954870;28;19933;-82
2023/04/05 07:31:50;;;;;;;;;;;22.30;74.00;;;;;;4958580;28;19910;-81
2023/04/05 07:34:19;;;;;;;;;;;22.00;71.90;;;;;;4947589;29;19966;-82
2023/04/05 07:36:46;;;;;;;;;;;21.90;74.00;;;;;;4952989;28;19922;-81
2023/04/05 07:39:13;;;;;;;;;;;21.80;73.70;;;;;;4971972;28;20111;-81
2023/04/05 07:41:40;;;;;;;;;;;21.80;72.10;;;;;;4950559;28;19922;-83
2023/04/05 07:44:07;;;;;;;;;;;21.30;71.20;;;;;;4953070;28;19947;-82
2023/04/05 07:46:35;;;;;;;;;;;21.00;71.60;;;;;;4958443;28;19933;-80
2023/04/05 07:49:03;;;;;;;;;;;21.10;72.90;;;;;;4971283;28;19949;-81
2023/04/05 07:51:36;;;;;;;;;;;21.50;74.00;;;;;;4959761;29;19928;-81
2023/04/05 07:54:04;;;;;;;;;;;21.50;72.50;;;;;;4963249;28;19926;-81
2023/04/05 07:56:31;;;;;;;;;;;21.70;72.90;;;;;;4949197;28;19926;-82
2023/04/05 07:58:58;;;;;;;;;;;21.90;72.10;;;;;;4981616;28;19929;-81
2023/04/05 08:01:26;;;;;;;;;;;21.90;69.20;;;;;;4959281;28;20416;-82
2023/04/05 08:03:54;;;;;;;;;;;21.90;69.60;;;;;;4954030;28;19937;-81
2023/04/05 08:06:21;;;;;;;;;;;21.80;68.10;;;;;;4944644;29;19926;-81
2023/04/05 08:08:49;;;;;;;;;;;21.30;68.90;;;;;;4952378;29;19922;-82
2023/04/05 08:11:16;;;;;;;;;;;21.10;68.80;;;;;;4947960;29;19929;-81
2023/04/05 08:13:45;;;;;;;;;;;20.60;68.00;;;;;;4968146;28;20018;-81
2023/04/05 08:16:12;;;;;;;;;;;20.40;69.80;;;;;;4956324;28;19993;-81
2023/04/05 08:18:39;;;;;;;;;;;20.40;70.90;;;;;;4958048;28;19926;-82
2023/04/05 08:21:06;;;;;;;;;;;20.60;71.90;;;;;;4956172;28;19952;-82
2023/04/05 08:23:33;;;;;;;;;;;20.80;71.00;;;;;;4966915;28;19937;-82
2023/04/05 08:26:01;;;;;;;;;;;21.00;71.20;;;;;;4966225;29;19923;-82
2023/04/05 08:28:28;;;;;;;;;;;21.00;71.50;;;;;;4973221;28;19925;-82
2023/04/05 08:30:56;;;;;;;;;;;21.00;71.00;;;;;;4950914;29;19986;-83
2023/04/05 08:33:24;;;;;;;;;;;21.00;71.90;;;;;;4965199;28;20033;-81
2023/04/05 08:35:51;;;;;;;;;;;21.10;71.40;;;;;;4972989;28;19968;-82
2023/04/05 08:38:18;;;;;;;;;;;21.00;70.20;;;;;;4960222;28;20186;-82
2023/04/05 08:40:46;;;;;;;;;;;20.50;67.90;;;;;;4979234;28;20390;-82
2023/04/05 08:43:17;;;;;;;;;;;20.20;69.30;;;;;;4964430;29;19922;-82
2023/04/05 08:45:47;;;;;;;;;;;20.20;70.60;;;;;;4955281;28;19926;-82
2023/04/05 08:48:15;;;;;;;;;;;20.30;70.10;;;;;;4965854;28;19926;-82
2023/04/05 08:50:42;;;;;;;;;;;20.30;69.80;;;;;;4960991;28;19933;-82
2023/04/05 08:53:10;;;;;;;;;;;20.30;69.60;;;;;;4953480;29;19926;-82
2023/04/05 08:55:37;;;;;;;;;;;20.10;70.00;;;;;;4949192;28;19953;-82
2023/04/05 08:58:07;;;;;;;;;;;19.70;66.00;;;;;;4940775;28;19932;-82
2023/04/05 09:00:36;;;;;;;;;;;18.90;66.50;;;;;;4951621;28;20192;-82
2023/04/05 09:03:03;;;;;;;;;;;18.30;68.10;;;;;;4954949;28;19930;-82
2023/04/05 09:05:30;;;;;;;;;;;18.20;68.90;;;;;;4960026;28;19922;-82
2023/04/05 09:07:58;;;;;;;;;;;18.10;67.00;;;;;;4957609;28;20314;-82
2023/04/05 09:10:27;;;;;;;;;;;17.80;67.90;;;;;;4957709;28;19932;-82
2023/04/05 09:12:54;;;;;;;;;;;17.50;68.40;;;;;;4949239;29;20328;-80
2023/04/05 09:15:23;;;;;;;;;;;17.30;67.90;;;;;;4948847;28;19923;-82
2023/04/05 09:17:52;;;;;;;;;;;16.90;67.70;;;;;;4949660;28;19961;-82
2023/04/05 09:20:19;;;;;;;;;;;16.70;68.50;;;;;;4960920;28;19921;-81
2023/04/05 09:22:46;;;;;;;;;;;16.50;69.20;;;;;;4955974;29;20014;-82
2023/04/05 09:25:29;;;;;;;;;;;16.50;70.10;;;;;;4952797;28;19941;-82
2023/04/05 09:27:58;;;;;;;;;;;16.70;71.30;;;;;;4968718;28;19933;-82
2023/04/05 09:30:25;;;;;;;;;;;16.90;69.90;;;;;;4950747;28;20279;-82
2023/04/05 09:32:54;;;;;;;;;;;16.90;70.50;;;;;;4932121;29;20330;-82
2023/04/05 09:35:23;;;;;;;;;;;16.70;69.20;;;;;;4935356;28;19923;-82
2023/04/05 09:37:52;;;;;;;;;;;16.10;66.90;;;;;;4944432;29;19926;-82
2023/04/05 09:40:19;;;;;;;;;;;15.30;66.20;;;;;;4954520;28;19989;-81
2023/04/05 09:42:46;;;;;;;;;;;14.70;66.40;;;;;;4934111;28;19938;-81
2023/04/05 09:45:13;;;;;;;;;;;14.10;66.60;;;;;;4949224;28;19930;-82
2023/04/05 09:47:56;;;;;;;;;;;13.60;66.90;;;;;;4936375;29;19934;-81
2023/04/05 09:50:22;;;;;;;;;;;13.00;66.50;;;;;;4949063;29;20071;-83
2023/04/05 09:52:51;;;;;;;;;;;12.50;66.60;;;;;;4943791;29;19930;-83
2023/04/05 09:55:28;;;;;;;;;;;12.30;67.20;;;;;;4937183;29;19922;-82
2023/04/05 09:57:55;;;;;;;;;;;12.00;67.30;;;;;;4939533;29;19954;-82
2023/04/05 10:00:23;;;;;;;;;;;12.00;68.20;;;;;;4950859;29;19959;-81
2023/04/05 10:02:52;;;;;;;;;;;12.00;68.50;;;;;;4959981;28;19958;-81
2023/04/05 10:05:23;;;;;;;;;;;11.80;68.30;;;;;;4976234;28;20358;-82
2023/04/05 10:07:50;;;;;;;;;;;11.60;69.10;;;;;;4939606;29;20620;-82
2023/04/05 10:10:17;;;;;;;;;;;11.70;70.20;;;;;;4961607;28;19926;-82
2023/04/05 10:12:45;;;;;;;;;;;11.90;70.70;;;;;;4954806;28;19927;-82
2023/04/05 10:15:13;;;;;;;;;;;12.00;71.00;;;;;;4968067;28;19923;-82
2023/04/05 10:17:48;;;;;;;;;;;12.10;70.90;;;;;;4964813;28;19932;-83
2023/04/05 10:20:15;;;;;;;;;;;12.10;71.00;;;;;;4953020;29;19914;-84
2023/04/05 10:22:56;;;;;;;;;;;12.20;71.60;;;;;;4962616;28;19922;-82
2023/04/05 10:25:26;;;;;;;;;;;12.40;71.90;;;;;;4951469;28;19910;-83
2023/04/05 10:27:54;;;;;;;;;;;12.60;71.40;;;;;;4957857;28;19940;-84
2023/04/05 10:30:24;;;;;;;;;;;12.70;71.70;;;;;;4949680;28;20009;-84
2023/04/05 10:33:01;;;;;;;;;;;12.60;72.00;;;;;;4954782;28;19930;-83
2023/04/05 10:35:31;;;;;;;;;;;12.80;72.80;;;;;;4949728;28;19934;-83
2023/04/05 10:38:09;;;;;;;;;;;12.90;72.10;;;;;;4948160;29;19949;-82
2023/04/05 10:40:41;;;;;;;;;;;13.00;71.90;;;;;;4953750;28;19933;-82
2023/04/05 10:43:14;;;;;;;;;;;13.10;72.30;;;;;;4952545;29;19923;-83
2023/04/05 10:45:42;;;;;;;;;;;13.20;72.60;;;;;;4954909;28;19926;-83
2023/04/05 10:48:16;;;;;;;;;;;13.30;71.40;;;;;;4947495;28;19945;-81
2023/04/05 10:50:45;;;;;;;;;;;13.20;70.70;;;;;;4961545;29;19995;-80
2023/04/05 10:53:13;;;;;;;;;;;13.00;71.10;;;;;;4959738;29;20025;-81
2023/04/05 10:55:41;;;;;;;;;;;13.00;71.80;;;;;;4935156;29;19929;-81
2023/04/05 10:58:09;;;;;;;;;;;13.20;72.50;;;;;;4957714;29;20542;-81
2023/04/05 11:00:36;;;;;;;;;;;13.40;72.50;;;;;;4943637;29;20377;-81
2023/04/05 11:03:03;;;;;;;;;;;13.50;72.20;;;;;;4953963;28;19944;-80
2023/04/05 11:05:31;;;;;;;;;;;13.60;72.90;;;;;;4963837;28;19926;-80
2023/04/05 11:08:00;;;;;;;;;;;13.80;72.50;;;;;;4934622;29;20390;-81
2023/04/05 11:10:28;;;;;;;;;;;13.90;72.50;;;;;;4941215;29;20014;-80
2023/04/05 11:13:09;;;;;;;;;;;14.00;71.90;;;;;;4958278;29;19973;-80
2023/04/05 11:15:36;;;;;;;;;;;14.00;71.80;;;;;;4960003;28;20394;-80
2023/04/05 11:18:04;;;;;;;;;;;14.10;72.50;;;;;;4944579;29;19968;-80
2023/04/05 11:20:41;;;;;;;;;;;14.30;72.90;;;;;;4942917;29;19930;-80
2023/04/05 11:23:11;;;;;;;;;;;14.20;71.30;;;;;;4944595;29;20035;-81
2023/04/05 11:25:40;;;;;;;;;;;13.90;70.70;;;;;;4962542;29;19989;-81
2023/04/05 11:28:08;;;;;;;;;;;13.70;70.90;;;;;;4961344;29;19934;-81
2023/04/05 11:30:48;;;;;;;;;;;13.50;70.90;;;;;;4962469;29;19954;-80
2023/04/05 11:33:33;;;;;;;;;;;13.20;71.60;;;;;;4963531;29;19951;-81
2023/04/05 11:36:05;;;;;;;;;;;12.90;71.10;;;;;;4944690;29;20441;-82
2023/04/05 11:38:32;;;;;;;;;;;13.00;72.50;;;;;;4960879;28;19925;-82
2023/04/05 11:41:16;;;;;;;;;;;13.20;71.80;;;;;;4963273;28;19918;-81
2023/04/05 11:43:43;;;;;;;;;;;13.40;72.50;;;;;;4961404;28;19926;-81
2023/04/05 11:46:11;;;;;;;;;;;13.70;72.90;;;;;;4952750;28;19932;-81
2023/04/05 11:48:38;;;;;;;;;;;14.00;72.40;;;;;;4952721;29;19994;-81
2023/04/05 11:51:07;;;;;;;;;;;14.20;72.10;;;;;;4958702;28;19934;-81
2023/04/05 11:53:36;;;;;;;;;;;14.40;72.10;;;;;;4941451;29;19974;-81
2023/04/05 11:56:09;;;;;;;;;;;14.40;70.40;;;;;;4940378;29;19923;-81
2023/04/05 11:58:45;;;;;;;;;;;14.30;70.60;;;;;;4948562;28;19947;-81
2023/04/05 12:01:12;;;;;;;;;;;14.40;70.50;;;;;;4955115;29;19922;-81
2023/04/05 12:03:40;;;;;;;;;;;14.50;71.40;;;;;;4943417;29;19930;-80
2023/04/05 12:06:07;;;;;;;;;;;14.70;71.20;;;;;;4950557;29;20740;-82
2023/04/05 12:08:39;;;;;;;;;;;14.80;71.30;;;;;;4949037;28;19933;-81
2023/04/05 12:11:08;;;;;;;;;;;15.00;71.00;;;;;;4947976;28;20398;-81
2023/04/05 12:13:36;;;;;;;;;;;15.20;69.90;;;;;;4947909;28;19950;-81
2023/04/05 12:16:04;;;;;;;;;;;15.40;69.00;;;;;;4935122;29;20033;-81
2023/04/05 12:18:32;;;;;;;;;;;15.50;68.60;;;;;;4950019;28;20417;-81
2023/04/05 12:21:01;;;;;;;;;;;15.60;68.40;;;;;;4943275;29;19926;-81
2023/04/05 12:23:28;;;;;;;;;;;15.50;68.20;;;;;;4930941;28;19965;-81
2023/04/05 12:25:56;;;;;;;;;;;15.40;67.30;;;;;;4944062;28;19930;-82
2023/04/05 12:28:24;;;;;;;;;;;15.20;67.70;;;;;;4944589;28;19986;-81
2023/04/05 12:30:52;;;;;;;;;;;15.20;67.40;;;;;;4943299;29;19931;-81
2023/04/05 12:33:29;;;;;;;;;;;15.40;67.60;;;;;;4953272;28;19962;-81
2023/04/05 12:35:59;;;;;;;;;;;15.40;67.20;;;;;;4942844;28;21620;-81
2023/04/05 12:38:27;;;;;;;;;;;15.50;68.00;;;;;;4948442;28;20017;-81
2023/04/05 12:40:54;;;;;;;;;;;15.60;63.90;;;;;;4947671;29;19926;-81
2023/04/05 12:43:21;;;;;;;;;;;15.50;62.70;;;;;;4943586;29;20003;-82
2023/04/05 12:45:54;;;;;;;;;;;15.50;64.20;;;;;;4952361;28;19925;-81
2023/04/05 12:48:24;;;;;;;;;;;15.60;65.60;;;;;;4936044;28;19926;-80
2023/04/05 12:50:53;;;;;;;;;;;15.70;65.80;;;;;;4953518;28;19965;-81
2023/04/05 12:53:21;;;;;;;;;;;15.90;66.60;;;;;;4955801;28;19926;-81
2023/04/05 12:55:49;;;;;;;;;;;16.00;66.10;;;;;;4963327;28;19922;-84
2023/04/05 12:58:19;;;;;;;;;;;16.10;64.20;;;;;;4941282;29;19959;-83
2023/04/05 13:00:46;;;;;;;;;;;16.00;63.80;;;;;;4943291;29;19927;-83
2023/04/05 13:03:20;;;;;;;;;;;15.90;64.00;;;;;;4942796;29;19926;-82
2023/04/05 13:05:48;;;;;;;;;;;15.90;64.50;;;;;;4959274;28;19930;-82
2023/04/05 13:08:17;;;;;;;;;;;16.10;64.00;;;;;;4960418;28;20504;-84
2023/04/05 13:10:44;;;;;;;;;;;15.90;62.50;;;;;;4951245;29;21250;-83
2023/04/05 13:13:11;;;;;;;;;;;15.80;62.70;;;;;;4960383;28;19973;-84
2023/04/05 13:15:39;;;;;;;;;;;15.60;62.60;;;;;;4960196;28;19926;-83
2023/04/05 13:18:08;;;;;;;;;;;15.50;61.90;;;;;;4948587;29;19941;-83
2023/04/05 13:20:36;;;;;;;;;;;15.50;62.40;;;;;;4949878;29;19921;-83
2023/04/05 13:23:09;;;;;;;;;;;15.40;62.80;;;;;;4947642;28;19926;-82
2023/04/05 13:25:37;;;;;;;;;;;15.50;62.80;;;;;;4948121;29;20583;-83
2023/04/05 13:28:06;;;;;;;;;;;15.50;62.80;;;;;;4942879;29;20297;-83
2023/04/05 13:30:33;;;;;;;;;;;15.60;63.80;;;;;;4949052;28;19945;-83
2023/04/05 13:33:00;;;;;;;;;;;15.60;62.00;;;;;;4954878;28;19953;-83
2023/04/05 13:35:29;;;;;;;;;;;15.40;61.80;;;;;;4945918;28;19969;-86
2023/04/05 13:40:24;;;;;;;;;;;15.40;63.20;;;;;;4917017;29;20400;-81
2023/04/05 13:42:51;;;;;;;;;;;15.40;62.40;;;;;;4927104;29;19926;-82
2023/04/05 13:45:18;;;;;;;;;;;15.50;62.90;;;;;;4933922;29;19981;-81
2023/04/05 13:47:52;;;;;;;;;;;15.50;62.70;;;;;;4947911;28;19917;-81
2023/04/05 13:50:18;;;;;;;;;;;15.50;63.20;;;;;;4923989;28;19942;-81
2023/04/05 13:52:45;;;;;;;;;;;15.60;63.10;;;;;;4923138;29;19977;-81
2023/04/05 13:55:12;;;;;;;;;;;15.80;63.60;;;;;;4928948;29;19922;-80
2023/04/05 13:57:55;;;;;;;;;;;15.90;63.80;;;;;;4943212;29;19922;-80
2023/04/05 14:00:23;;;;;;;;;;;15.90;62.50;;;;;;4939794;29;19923;-81
2023/04/05 14:02:53;;;;;;;;;;;15.70;61.50;;;;;;4936331;29;19927;-82
2023/04/05 14:05:20;;;;;;;;;;;15.50;61.20;;;;;;4921639;29;19987;-80
2023/04/05 14:07:50;;;;;;;;;;;15.40;61.30;;;;;;4917169;29;19931;-80
2023/04/05 14:10:20;;;;;;;;;;;15.30;61.60;;;;;;4924576;29;19922;-82
2023/04/05 14:12:51;;;;;;;;;;;15.20;62.00;;;;;;4917523;29;19910;-79
2023/04/05 14:15:21;;;;;;;;;;;15.20;62.50;;;;;;4923806;29;19930;-82
2023/04/05 14:17:50;;;;;;;;;;;15.40;62.70;;;;;;4917449;29;19930;-82
2023/04/05 14:20:20;;;;;;;;;;;15.50;62.80;;;;;;4920354;29;20021;-82
2023/04/05 14:22:47;;;;;;;;;;;15.50;62.70;;;;;;4918932;29;19961;-80
2023/04/05 14:25:14;;;;;;;;;;;15.70;62.60;;;;;;4936147;29;19951;-81
2023/04/05 14:27:42;;;;;;;;;;;15.70;62.40;;;;;;4923551;29;19942;-82
2023/04/05 14:30:11;;;;;;;;;;;15.60;64.10;;;;;;4928922;29;19954;-79
2023/04/05 14:32:40;;;;;;;;;;;15.80;63.50;;;;;;4945623;29;19926;-78
2023/04/05 14:35:08;;;;;;;;;;;15.80;63.20;;;;;;4938466;29;19927;-79
2023/04/05 14:37:35;;;;;;;;;;;15.70;62.40;;;;;;4929262;29;19954;-78
2023/04/05 14:40:03;;;;;;;;;;;15.50;61.80;;;;;;4947908;29;19986;-80
2023/04/05 14:42:32;;;;;;;;;;;15.40;61.60;;;;;;4931327;29;19926;-80